createdAt,value
2024-02-05T00:02:08.766Z,6.4
2024-02-05T00:07:06.355Z,6.2
2024-02-05T00:12:06.448Z,5.4
2024-02-05T00:17:06.417Z,6.9
2024-02-05T00:22:06.555Z,5.5
2024-02-05T00:27:06.533Z,5.9
2024-02-05T00:32:06.578Z,6.0
2024-02-05T00:37:06.721Z,5.9
2024-02-05T00:42:06.710Z,5.6
2024-02-05T00:47:06.783Z,6.7
2024-02-05T00:52:06.922Z,7.3
2024-02-05T00:57:06.938Z,5.9
2024-02-05T01:02:07.177Z,6.8
2024-02-05T01:07:07.291Z,5.2
2024-02-05T01:12:07.199Z,5.7
2024-02-05T01:17:07.353Z,5.9
2024-02-05T01:22:07.362Z,4.6
2024-02-05T01:27:07.224Z,6.6
2024-02-05T01:32:07.367Z,5.5
2024-02-05T01:37:07.453Z,5.7
2024-02-05T01:42:07.446Z,5.2
2024-02-05T01:47:07.506Z,7.1
2024-02-05T01:52:07.600Z,4.4
2024-02-05T01:57:07.722Z,5.3
2024-02-05T02:02:07.739Z,4.1
2024-02-05T02:07:07.772Z,6.4
2024-02-05T02:12:07.607Z,5.3
2024-02-05T02:17:07.709Z,4.3
2024-02-05T02:22:07.733Z,5.1
2024-02-05T02:27:07.739Z,6.3
2024-02-05T02:32:07.799Z,5.1
2024-02-05T02:37:07.831Z,6.4
2024-02-05T02:42:07.897Z,4.8
2024-02-05T02:47:07.919Z,5.1
2024-02-05T02:52:09.287Z,5.7
2024-02-05T02:57:08.041Z,5.0
2024-02-05T03:02:08.211Z,6.0
2024-02-05T03:07:08.214Z,5.9
2024-02-05T03:12:08.274Z,5.4
2024-02-05T03:17:08.431Z,6.7
2024-02-05T03:22:08.519Z,5.5
2024-02-05T03:27:08.464Z,5.1
2024-02-05T03:32:08.525Z,5.3
2024-02-05T03:37:08.738Z,6.6
2024-02-05T03:42:08.679Z,5.7
2024-02-05T03:47:08.705Z,4.8
2024-02-05T03:52:08.787Z,5.0
2024-02-05T03:57:08.719Z,6.2
2024-02-05T04:02:08.939Z,7.2
2024-02-05T04:07:08.786Z,5.2
2024-02-05T04:12:08.790Z,6.0
2024-02-05T04:17:08.836Z,5.4
2024-02-05T04:22:08.960Z,5.8
2024-02-05T04:27:08.977Z,5.9
2024-02-05T04:32:11.544Z,4.3
2024-02-05T04:37:09.247Z,4.5
2024-02-05T04:42:09.111Z,4.3
2024-02-05T04:47:09.163Z,6.5
2024-02-05T04:52:09.232Z,4.5
2024-02-05T04:57:09.228Z,4.9
2024-02-05T05:07:09.554Z,5.0
2024-02-05T05:12:09.408Z,5.1
2024-02-05T05:17:09.502Z,5.8
2024-02-05T05:22:09.505Z,5.7
2024-02-05T05:27:09.521Z,6.0
2024-02-05T05:32:10.796Z,4.7
2024-02-05T05:37:09.630Z,5.0
2024-02-05T05:42:09.635Z,4.1
2024-02-05T05:47:09.708Z,4.6
2024-02-05T05:52:09.869Z,4.4
2024-02-05T05:57:09.809Z,6.3
2024-02-05T06:02:09.959Z,7.2
2024-02-05T06:07:10.094Z,6.2
2024-02-05T06:12:09.945Z,6.5
2024-02-05T06:17:09.958Z,5.4
2024-02-05T06:22:10.068Z,6.5
2024-02-05T06:27:10.035Z,6.4
2024-02-05T06:32:10.096Z,5.2
2024-02-05T06:42:10.181Z,6.7
2024-02-05T06:47:10.188Z,6.1
2024-02-05T06:52:10.216Z,6.0
2024-02-05T06:57:10.242Z,6.5
2024-02-05T07:02:10.624Z,5.4
2024-02-05T07:07:10.316Z,6.1
2024-02-05T07:12:10.329Z,6.3
2024-02-05T07:17:10.373Z,4.6
2024-02-05T07:22:10.382Z,4.7
2024-02-05T07:27:10.381Z,4.5
2024-02-05T07:32:10.406Z,5.3
2024-02-05T07:37:10.431Z,3.7
2024-02-05T07:42:10.459Z,4.0
2024-02-05T07:47:10.534Z,3.2
2024-02-05T07:52:10.497Z,4.1
2024-02-05T07:57:10.529Z,3.4
2024-02-05T08:07:10.713Z,3.0
2024-02-05T08:12:10.679Z,2.7
2024-02-05T08:17:10.738Z,2.6
2024-02-05T08:22:10.783Z,2.1
2024-02-05T08:27:10.796Z,2.7
2024-02-05T08:32:10.780Z,1.7
2024-02-05T08:37:10.842Z,2.0
2024-02-05T08:42:21.125Z,1.4
2024-02-05T08:47:10.923Z,1.2
2024-02-05T08:52:11.000Z,0.8
2024-02-05T08:57:10.993Z,0.9
2024-02-05T09:02:11.065Z,1.3
2024-02-05T09:07:11.156Z,0.6
2024-02-05T09:12:15.051Z,0.9
2024-02-05T09:22:11.169Z,0.8
2024-02-05T09:27:11.170Z,0.9
2024-02-05T09:37:11.328Z,0.7
2024-02-05T09:42:11.367Z,0.8
2024-02-05T09:47:11.458Z,0.7
2024-02-05T09:52:12.841Z,0.9
2024-02-05T09:57:11.573Z,1.1
2024-02-05T10:02:14.821Z,1.5
2024-02-05T10:07:11.755Z,1.1
2024-02-05T10:12:11.734Z,1.6
2024-02-05T10:17:11.844Z,1.0
2024-02-05T10:22:11.909Z,1.1
2024-02-05T10:27:12.032Z,0.7
2024-02-05T10:32:12.037Z,0.6
2024-02-05T10:37:12.231Z,0.7
2024-02-05T10:42:12.177Z,1.0
2024-02-05T10:52:14.972Z,0.9
2024-02-05T10:57:12.387Z,1.2
2024-02-05T11:02:12.572Z,0.6
2024-02-05T11:07:12.653Z,0.9
2024-02-05T11:12:12.568Z,0.7
2024-02-05T11:17:12.692Z,1.4
2024-02-05T11:22:12.786Z,0.7
2024-02-05T11:32:12.872Z,0.8
2024-02-05T11:37:13.045Z,0.6
2024-02-05T11:42:13.129Z,0.8
2024-02-05T11:47:13.277Z,0.7
2024-02-05T11:52:13.485Z,0.6
2024-02-05T12:02:13.543Z,0.5
2024-02-05T12:17:13.836Z,0.4
2024-02-05T12:22:13.944Z,0.6
2024-02-05T12:27:13.957Z,0.7
2024-02-05T12:32:14.050Z,2.6
2024-02-05T12:37:14.179Z,21.2
2024-02-05T12:42:14.258Z,9.2
2024-02-05T12:47:14.295Z,5.8
2024-02-05T12:52:14.411Z,6.0
2024-02-05T12:57:14.468Z,3.4
2024-02-05T13:02:14.655Z,1.9
2024-02-05T13:07:14.675Z,3.1
2024-02-05T13:12:14.685Z,3.3
2024-02-05T13:17:14.851Z,3.2
2024-02-05T13:22:14.886Z,4.1
2024-02-05T13:27:14.893Z,3.9
2024-02-05T13:32:14.930Z,3.1
2024-02-05T13:37:15.097Z,2.9
2024-02-05T13:42:15.080Z,2.1
2024-02-05T13:47:15.149Z,21.1
2024-02-05T13:52:15.375Z,4.0
2024-02-05T13:57:15.275Z,5.9
2024-02-05T14:02:15.434Z,3.3
2024-02-05T14:07:15.836Z,2.2
2024-02-05T14:12:15.608Z,2.5
2024-02-05T14:17:15.677Z,2.0
2024-02-05T14:22:15.837Z,2.6
2024-02-05T14:32:15.885Z,2.4
2024-02-05T14:37:16.013Z,2.1
2024-02-05T14:42:16.080Z,1.7
2024-02-05T14:47:16.119Z,1.8
2024-02-05T14:52:16.260Z,1.7
2024-02-05T14:57:16.352Z,2.5
2024-02-05T15:02:16.415Z,2.3
2024-02-05T15:07:16.542Z,2.5
2024-02-05T15:12:16.539Z,2.3
2024-02-05T15:17:16.640Z,3.7
2024-02-05T15:22:19.308Z,3.3
2024-02-05T15:27:16.769Z,2.9
2024-02-05T15:32:16.897Z,3.0
2024-02-05T15:37:17.064Z,3.3
2024-02-05T15:42:17.014Z,3.0
2024-02-05T15:47:17.110Z,5.0
2024-02-05T15:52:17.196Z,3.9
2024-02-05T15:57:17.238Z,5.7
2024-02-05T16:02:17.358Z,5.6
2024-02-05T16:07:17.444Z,5.1
2024-02-05T16:12:19.927Z,4.6
2024-02-05T16:22:17.558Z,6.6
2024-02-05T16:27:17.629Z,5.5
2024-02-05T16:32:17.678Z,5.4
2024-02-05T16:37:17.797Z,5.7
2024-02-05T16:42:17.802Z,5.1
2024-02-05T16:47:17.885Z,6.0
2024-02-05T16:52:18.019Z,5.5
2024-02-05T16:57:18.041Z,5.6
2024-02-05T17:02:18.138Z,6.2
2024-02-05T17:07:18.274Z,6.1
2024-02-05T17:12:18.281Z,5.7
2024-02-05T17:22:18.375Z,6.0
2024-02-05T17:27:18.540Z,5.7
2024-02-05T17:32:18.505Z,6.6
2024-02-05T17:37:18.809Z,5.6
2024-02-05T18:02:19.175Z,5.1
2024-02-05T18:07:19.285Z,6.2
2024-02-05T18:12:19.185Z,5.4
2024-02-05T18:17:19.395Z,6.5
2024-02-05T18:22:19.428Z,7.2
2024-02-05T18:27:19.533Z,7.0
2024-02-05T18:32:19.491Z,6.3
2024-02-05T18:37:19.742Z,7.1
2024-02-05T18:42:19.662Z,6.6
2024-02-05T18:47:19.829Z,6.5
2024-02-05T18:52:19.873Z,6.2
2024-02-05T18:57:20.029Z,7.1
2024-02-05T19:02:20.186Z,5.8
2024-02-05T19:07:20.216Z,7.4
2024-02-05T19:12:20.219Z,5.8
2024-02-05T19:22:20.400Z,6.4
2024-02-05T19:27:20.561Z,6.1
2024-02-05T19:32:20.469Z,5.1
2024-02-05T19:37:20.657Z,5.6
2024-02-05T19:42:20.637Z,5.4
2024-02-05T19:47:20.883Z,6.2
2024-02-05T19:52:20.862Z,6.6
2024-02-05T19:57:20.964Z,6.2
2024-02-05T20:02:20.944Z,5.4
2024-02-05T20:07:21.038Z,5.8
2024-02-05T20:12:20.874Z,5.2
2024-02-05T20:17:21.022Z,8.1
2024-02-05T20:22:21.096Z,6.6
2024-02-05T20:27:21.218Z,4.5
2024-02-05T20:32:21.165Z,5.6
2024-02-05T20:37:21.422Z,5.8
2024-02-05T20:42:21.325Z,6.7
2024-02-05T20:47:21.506Z,5.0
2024-02-05T20:52:21.564Z,6.0
2024-02-05T20:57:21.719Z,4.9
2024-02-05T21:02:21.647Z,6.0
2024-02-05T21:07:21.961Z,6.4
2024-02-05T21:12:21.844Z,4.9
2024-02-05T21:17:22.082Z,7.4
2024-02-05T21:22:22.080Z,6.5
2024-02-05T21:27:22.293Z,5.1
2024-02-05T21:37:22.486Z,4.6
2024-02-05T21:42:22.397Z,13.7
2024-02-05T21:47:22.575Z,28.3
2024-02-05T21:52:22.610Z,14.2
2024-02-05T21:57:22.838Z,11.5
2024-02-05T22:02:22.904Z,6.5
2024-02-05T22:07:23.149Z,5.5
2024-02-05T22:12:22.984Z,6.4
2024-02-05T22:17:23.209Z,8.3
2024-02-05T22:22:23.154Z,5.8
2024-02-05T22:27:23.365Z,7.6
2024-02-05T22:32:23.250Z,6.7
2024-02-05T22:37:23.464Z,7.1
2024-02-05T22:42:23.385Z,5.8
2024-02-05T22:47:23.520Z,6.5
2024-02-05T22:52:24.871Z,7.0
2024-02-05T22:57:23.614Z,7.1
2024-02-05T23:02:23.678Z,5.0
2024-02-05T23:07:23.784Z,6.4
2024-02-05T23:12:23.731Z,5.5
2024-02-05T23:17:23.908Z,6.4
2024-02-05T23:22:24.959Z,6.0
2024-02-05T23:27:24.030Z,8.0
2024-02-05T23:32:23.982Z,5.6
2024-02-05T23:37:24.251Z,7.4
2024-02-05T23:42:24.178Z,6.6
2024-02-05T23:47:24.346Z,7.9
2024-02-05T23:52:24.378Z,4.7
2024-02-05T23:57:24.515Z,5.5
